Time;durP1;ratioP1;P1;durP2;ratioP2;P2;SDS_P1;SDS_P2;PMS_P1;PMS_P2;Temp;Humidity;BMP_temperature;BMP_pressure;BME280_temperature;BME280_humidity;BME280_pressure;Samples;Min_cycle;Max_cycle;Signal;HPM_P1;HPM_P2
2022/06/13 00:01:12;;;;;;;5.40;1.17;;;15.90;99.90;;;15.17;100.00;97840.47;4989154;28;20153;-69
2022/06/13 00:03:40;;;;;;;10.40;1.70;;;;;;;15.13;100.00;97832.91;4989857;28;20129;-68
2022/06/13 00:06:07;;;;;;;4.47;1.30;;;;;;;15.12;100.00;97825.97;4987777;28;20125;-69
2022/06/13 00:08:35;;;;;;;7.35;1.38;;;;;;;15.25;100.00;97822.56;4992042;28;20081;-68
2022/06/13 00:11:05;;;;;;;6.68;1.60;;;15.60;99.90;;;15.00;100.00;97822.28;4986678;28;20100;-68
2022/06/13 00:13:34;;;;;;;6.82;1.30;;;15.50;99.90;;;14.85;100.00;97824.84;5018309;28;20433;-68
2022/06/13 00:16:02;;;;;;;7.78;1.35;;;15.40;99.90;;;14.85;100.00;97830.06;4992931;28;20086;-67
2022/06/13 00:18:29;;;;;;;7.25;1.40;;;15.40;99.90;;;14.68;100.00;97842.38;4988558;28;20053;-68
2022/06/13 00:20:56;;;;;;;7.10;1.50;;;15.20;99.90;;;14.62;100.00;97852.25;4992086;28;20060;-68
2022/06/13 00:23:23;;;;;;;9.63;1.52;;;;;;;14.64;100.00;97858.22;4989709;28;20523;-68
2022/06/13 00:25:51;;;;;;;9.98;1.65;;;15.10;99.90;;;14.63;100.00;97851.31;4988306;28;20049;-68
2022/06/13 00:28:18;;;;;;;4.38;1.20;;;15.10;99.90;;;14.62;100.00;97852.25;4983155;28;20120;-68
2022/06/13 00:30:45;;;;;;;9.30;1.73;;;15.10;99.90;;;14.70;100.00;97857.03;4987918;28;20138;-68
2022/06/13 00:33:12;;;;;;;4.38;1.23;;;15.00;99.90;;;14.67;100.00;97862.44;4984712;28;20519;-67
2022/06/13 00:35:39;;;;;;;7.38;1.33;;;15.00;99.90;;;14.66;100.00;97859.91;4983032;28;20433;-69
2022/06/13 00:38:07;;;;;;;11.05;1.73;;;15.00;99.90;;;14.70;100.00;97857.03;4980691;28;20153;-68
2022/06/13 00:40:34;;;;;;;6.88;1.00;;;15.00;99.90;;;14.90;100.00;97857.72;4976503;28;20077;-67
2022/06/13 00:43:03;;;;;;;10.15;1.70;;;15.10;99.90;;;14.98;100.00;97869.41;4978689;28;20061;-68
2022/06/13 00:45:36;;;;;;;7.93;1.40;;;15.20;99.90;;;14.99;100.00;97873.72;4993384;28;20496;-67
2022/06/13 00:48:03;;;;;;;;;;;15.20;99.90;;;14.91;100.00;97869.84;4990384;28;20571;-68
2022/06/13 00:50:30;;;;;;;6.30;1.33;;;15.30;99.90;;;15.06;100.00;97876.84;4989480;28;20020;-67
2022/06/13 00:53:17;;;;;;;6.35;1.67;;;15.30;99.90;;;15.11;100.00;97872.19;4991996;28;20078;-69
2022/06/13 00:56:03;;;;;;;7.15;1.55;;;15.40;99.90;;;15.19;100.00;97870.00;4991424;28;20134;-65
2022/06/13 00:58:36;;;;;;;7.82;1.70;;;15.50;99.90;;;15.24;100.00;97867.13;4985296;28;20169;-67
2022/06/13 01:01:03;;;;;;;;;;;15.50;99.90;;;15.23;100.00;97874.09;4989536;28;20082;-69
2022/06/13 01:03:32;;;;;;;10.77;1.40;;;15.60;99.90;;;15.23;100.00;97871.50;4986928;28;20376;-68
2022/06/13 01:06:03;;;;;;;9.02;1.50;;;15.60;99.90;;;15.19;100.00;97871.75;4985489;28;20516;-68
2022/06/13 01:08:35;;;;;;;5.30;1.40;;;15.60;99.90;;;15.10;100.00;97864.41;4981850;28;20050;-67
2022/06/13 01:11:17;;;;;;;8.13;1.65;;;15.50;99.90;;;15.10;100.00;97862.69;4986970;28;20130;-68
2022/06/13 01:14:41;;;;;;;6.20;1.65;;;15.50;99.90;;;14.82;100.00;97865.97;4989762;28;20096;-68
2022/06/13 01:17:29;;;;;;;6.35;1.60;;;15.50;99.90;;;14.81;100.00;97870.34;4965233;28;20082;-67
2022/06/13 01:20:21;;;;;;;11.10;1.63;;;15.40;99.90;;;14.82;100.00;97863.34;4989173;28;20532;-68
2022/06/13 01:23:21;;;;;;;4.75;1.48;;;15.30;99.90;;;14.72;100.00;97862.19;4989159;28;20055;-68
2022/06/13 01:26:22;;;;;;;8.85;1.83;;;15.20;99.90;;;14.57;100.00;97862.09;4989036;28;20127;-68
2022/06/13 01:29:17;;;;;;;7.10;1.35;;;15.10;99.90;;;14.51;100.00;97870.22;4985264;28;20038;-68
2022/06/13 01:32:30;;;;;;;10.18;1.48;;;15.00;99.90;;;14.42;100.00;97870.72;4983716;28;20076;-68
2022/06/13 01:35:15;;;;;;;6.63;1.50;;;14.90;99.90;;;14.56;100.00;97870.00;4985850;28;20169;-69
2022/06/13 01:37:46;;;;;;;6.43;1.35;;;14.90;99.90;;;14.54;100.00;97871.84;4981392;28;20080;-68
2022/06/13 01:40:34;;;;;;;10.20;1.77;;;15.00;99.90;;;14.61;100.00;97868.81;4983307;28;20050;-69
2022/06/13 01:44:01;;;;;;;9.07;1.63;;;15.00;99.90;;;14.57;100.00;97869.06;4989468;28;20167;-68
2022/06/13 01:46:40;;;;;;;8.82;1.80;;;15.00;99.90;;;14.51;100.00;97864.16;4984114;28;20042;-68
2022/06/13 01:49:51;;;;;;;13.73;2.25;;;14.90;99.90;;;14.44;100.00;97864.50;5007109;28;20046;-67
2022/06/13 01:52:42;;;;;;;8.95;1.77;;;14.90;99.90;;;14.46;100.00;97871.38;5001574;28;20089;-69
2022/06/13 01:55:27;;;;;;;9.82;2.22;;;14.90;99.90;;;14.43;100.00;97875.84;4987593;28;20046;-67
2022/06/13 01:58:07;;;;;;;10.35;2.42;;;14.90;99.90;;;14.47;100.00;97873.94;4990168;28;20201;-67
2022/06/13 02:00:35;;;;;;;9.35;1.88;;;14.90;99.90;;;14.44;100.00;97868.88;4986503;28;20425;-68
2022/06/13 02:03:05;;;;;;;8.13;2.08;;;14.90;99.90;;;14.42;100.00;97862.88;4988550;28;20132;-68
2022/06/13 02:05:45;;;;;;;7.72;1.50;;;14.80;99.90;;;14.49;100.00;97863.41;4985660;28;20721;-68
2022/06/13 02:08:23;;;;;;;8.10;1.65;;;14.80;99.90;;;14.36;100.00;97861.44;4985766;28;20141;-67
2022/06/13 02:10:57;;;;;;;6.40;1.50;;;14.90;99.90;;;14.27;100.00;97861.94;4986018;28;20112;-68
2022/06/13 02:14:13;;;;;;;7.05;2.22;;;14.80;99.90;;;14.12;100.00;97857.53;4984604;28;20765;-67
2022/06/13 02:16:52;;;;;;;9.52;2.25;;;14.70;99.90;;;14.07;100.00;97859.50;4982345;28;20564;-67
2022/06/13 02:19:37;;;;;;;8.38;2.25;;;14.50;99.90;;;14.12;100.00;97866.19;4987570;28;20073;-68
2022/06/13 02:22:28;;;;;;;8.90;2.22;;;14.50;99.90;;;14.12;100.00;97867.97;4989625;28;20082;-67
2022/06/13 02:25:06;;;;;;;10.02;1.95;;;14.50;99.90;;;14.07;100.00;97872.56;4996379;28;20445;-68
2022/06/13 02:27:36;;;;;;;8.18;1.60;;;14.50;99.90;;;14.17;100.00;97876.41;4993185;28;20137;-68
2022/06/13 02:30:08;;;;;;;7.95;2.25;;;14.50;99.90;;;14.14;100.00;97864.34;4992209;28;20046;-68
2022/06/13 02:32:47;;;;;;;7.13;2.30;;;14.50;99.90;;;14.08;100.00;97869.06;4988376;28;20201;-67
2022/06/13 02:35:34;;;;;;;8.65;1.80;;;14.50;99.90;;;14.17;100.00;97868.56;4989508;28;20153;-68
2022/06/13 02:38:10;;;;;;;7.60;2.00;;;14.50;99.90;;;14.16;100.00;97856.44;4987570;28;20133;-68
2022/06/13 02:40:50;;;;;;;7.90;1.73;;;14.60;99.90;;;14.07;100.00;97854.28;4992745;28;20571;-68
2022/06/13 02:43:20;;;;;;;13.82;2.10;;;14.50;99.90;;;14.00;100.00;97852.03;4993204;28;20070;-68
2022/06/13 02:45:57;;;;;;;10.05;2.00;;;14.50;99.90;;;13.91;100.00;97856.84;4992139;28;20168;-68
2022/06/13 02:49:01;;;;;;;7.13;1.75;;;14.40;99.90;;;13.94;100.00;97857.56;4988615;28;20046;-68
2022/06/13 02:51:51;;;;;;;9.13;1.92;;;14.30;99.90;;;13.90;100.00;97853.41;4984762;28;20202;-68
2022/06/13 02:54:33;;;;;;;11.52;2.67;;;14.30;99.90;;;13.86;100.00;97846.66;4990091;28;20454;-69
2022/06/13 02:57:25;;;;;;;10.13;2.00;;;14.30;99.90;;;13.88;100.00;97852.66;4992606;28;20084;-68
2022/06/13 03:00:19;;;;;;;6.10;1.70;;;14.30;99.90;;;13.79;100.00;97853.13;4993675;28;20129;-68
2022/06/13 03:03:02;;;;;;;7.57;1.98;;;14.30;99.90;;;13.64;100.00;97856.50;4988786;28;20047;-68
2022/06/13 03:05:41;;;;;;;10.80;2.55;;;14.20;99.90;;;13.38;100.00;97877.75;4970986;28;20137;-68
2022/06/13 03:08:13;;;;;;;6.82;1.80;;;14.10;99.90;;;13.18;100.00;97876.09;4992760;28;20080;-68
2022/06/13 03:10:46;;;;;;;;;;;13.90;99.90;;;13.19;100.00;97880.38;4989434;28;20129;-68
2022/06/13 03:13:41;;;;;;;8.90;2.22;;;13.80;99.90;;;13.32;100.00;97878.06;4990998;28;20016;-68
2022/06/13 03:16:26;;;;;;;11.60;2.05;;;13.80;99.90;;;13.40;100.00;97880.28;4985163;28;20453;-69
2022/06/13 03:19:08;;;;;;;9.38;1.90;;;13.80;99.90;;;13.49;100.00;97879.81;4991519;28;20095;-67
2022/06/13 03:21:42;;;;;;;6.13;1.60;;;13.80;99.90;;;13.47;100.00;97876.44;4988110;28;20110;-68
2022/06/13 03:24:26;;;;;;;5.88;1.92;;;13.80;99.90;;;13.09;100.00;97881.75;4990999;28;20450;-67
2022/06/13 03:27:02;;;;;;;8.00;1.85;;;14.10;99.90;;;13.15;100.00;97891.03;4986883;28;20093;-68
2022/06/13 03:29:56;;;;;;;9.45;2.30;;;13.70;99.90;;;13.15;100.00;97891.84;4990947;28;20074;-68
2022/06/13 03:32:28;;;;;;;8.27;1.92;;;13.70;99.90;;;13.08;100.00;97898.28;4990055;28;20519;-68
2022/06/13 03:35:01;;;;;;;11.52;2.05;;;14.70;99.90;;;13.12;100.00;97897.22;4991731;28;20621;-68
2022/06/13 03:37:48;;;;;;;6.55;1.88;;;13.50;99.90;;;13.10;100.00;97901.66;4991029;28;20698;-68
2022/06/13 03:40:23;;;;;;;7.82;1.80;;;13.60;99.90;;;13.14;100.00;97904.97;4988908;28;20142;-67
2022/06/13 03:43:52;;;;;;;11.82;2.50;;;13.60;99.90;;;13.04;100.00;97909.75;5004741;28;20699;-67
2022/06/13 03:46:56;;;;;;;8.98;2.55;;;13.60;99.90;;;13.21;100.00;97913.34;4989850;28;20137;-68
2022/06/13 03:49:31;;;;;;;7.13;2.28;;;14.40;99.90;;;13.18;100.00;97917.78;4995534;28;20527;-68
2022/06/13 03:52:02;;;;;;;11.98;3.33;;;13.60;99.90;;;13.11;100.00;97912.94;4987355;28;20050;-68
2022/06/13 03:54:58;;;;;;;7.18;2.30;;;13.60;99.90;;;13.05;100.00;97916.69;4973327;28;20081;-68
2022/06/13 03:57:36;;;;;;;8.52;2.13;;;13.60;99.90;;;13.07;100.00;97916.59;4972769;28;20552;-67
2022/06/13 04:00:20;;;;;;;11.25;2.33;;;13.60;99.90;;;13.03;100.00;97915.06;4988089;28;20152;-67
2022/06/13 04:02:48;;;;;;;7.88;2.17;;;13.50;99.90;;;13.06;100.00;97915.75;4985108;28;20050;-67
2022/06/13 04:05:34;;;;;;;7.35;1.83;;;13.60;99.90;;;12.93;100.00;97919.84;4990653;28;20080;-66
2022/06/13 04:08:04;;;;;;;5.05;1.85;;;13.60;99.90;;;12.86;100.00;97923.66;4989964;28;20133;-67
2022/06/13 04:11:02;;;;;;;7.65;2.45;;;13.50;99.90;;;12.83;100.00;97918.59;4992350;28;20624;-67
2022/06/13 04:13:49;;;;;;;11.82;2.00;;;13.40;99.90;;;12.77;100.00;97931.00;4988984;28;20153;-67
2022/06/13 04:16:45;;;;;;;7.60;2.08;;;13.40;99.90;;;12.90;100.00;97925.22;4992282;28;20058;-67
2022/06/13 04:19:32;;;;;;;7.63;1.88;;;13.40;99.90;;;12.96;100.00;97920.56;4993700;28;20082;-67
2022/06/13 04:22:39;;;;;;;6.50;1.70;;;13.50;99.90;;;12.95;100.00;97929.31;4989603;28;20081;-67
2022/06/13 04:25:29;;;;;;;10.90;2.13;;;13.60;99.90;;;13.04;100.00;97932.38;4983024;28;20099;-68
2022/06/13 04:28:14;;;;;;;5.63;1.90;;;13.60;99.90;;;13.06;100.00;97930.56;4988531;28;20125;-68
2022/06/13 04:30:43;;;;;;;7.95;1.60;;;13.60;99.90;;;13.02;100.00;97942.03;4986275;28;20122;-68
2022/06/13 04:33:21;;;;;;;6.30;1.80;;;13.60;99.90;;;13.19;100.00;97942.09;4988875;28;20569;-68
2022/06/13 04:35:50;;;;;;;7.03;1.50;;;13.70;99.90;;;13.26;100.00;97942.66;4987930;28;20205;-67
2022/06/13 04:38:19;;;;;;;5.25;1.60;;;13.80;99.90;;;13.28;100.00;97938.25;4992630;28;20146;-67
2022/06/13 04:40:53;;;;;;;7.15;2.28;;;13.90;99.90;;;13.32;100.00;97934.56;4986226;28;20608;-68
2022/06/13 04:43:26;;;;;;;7.20;1.48;;;14.00;99.90;;;13.37;100.00;97945.63;4992264;28;20082;-67
2022/06/13 04:46:09;;;;;;;7.70;2.00;;;14.00;99.90;;;13.39;100.00;97947.25;4991486;28;20074;-68
2022/06/13 04:48:43;;;;;;;8.75;1.63;;;14.10;99.90;;;13.37;100.00;97954.28;4987878;28;20523;-68
2022/06/13 04:51:16;;;;;;;6.25;1.73;;;14.10;99.90;;;13.57;100.00;97952.47;4985595;28;20636;-68
2022/06/13 04:54:05;;;;;;;;;;;14.20;99.90;;;13.64;100.00;97953.88;4994977;28;20093;-67
2022/06/13 04:56:34;;;;;;;7.43;2.00;;;14.30;99.90;;;13.94;100.00;97954.13;4986877;28;20315;-68
2022/06/13 04:59:02;;;;;;;8.23;2.20;;;14.40;99.90;;;14.03;100.00;97950.19;4989055;28;20053;-68
2022/06/13 05:01:35;;;;;;;7.50;1.80;;;14.60;99.90;;;14.06;100.00;97955.25;4990956;28;20138;-68
2022/06/13 05:04:06;;;;;;;6.82;1.88;;;14.80;99.90;;;14.16;100.00;97953.88;5005240;28;20523;-68
2022/06/13 05:07:05;;;;;;;6.20;1.42;;;14.90;99.90;;;14.24;100.00;97963.91;4982341;28;20046;-68
2022/06/13 05:09:37;;;;;;;7.35;1.90;;;14.90;99.90;;;14.26;100.00;97962.09;4989676;28;20092;-67
2022/06/13 05:12:14;;;;;;;7.63;1.80;;;15.00;99.90;;;14.36;100.00;97960.66;4986785;28;20125;-68
2022/06/13 05:15:09;;;;;;;6.93;1.60;;;15.10;99.90;;;14.63;100.00;97962.81;4980892;28;20133;-67
2022/06/13 05:18:01;;;;;;;11.70;2.10;;;15.20;99.90;;;14.78;100.00;97956.78;4992750;28;20137;-68
2022/06/13 05:21:02;;;;;;;5.68;1.65;;;15.50;99.90;;;15.13;100.00;97958.41;4985536;28;20144;-69
2022/06/13 05:24:00;;;;;;;5.82;1.30;;;15.70;99.90;;;15.33;100.00;97952.91;4987906;28;20133;-68
2022/06/13 05:26:29;;;;;;;7.53;1.92;;;16.00;99.90;;;15.46;100.00;97953.91;4987505;28;20043;-68
2022/06/13 05:28:59;;;;;;;8.00;1.58;;;16.10;99.90;;;15.65;100.00;97956.31;4986975;28;20184;-67
2022/06/13 05:31:28;;;;;;;8.75;1.63;;;16.30;99.90;;;15.68;100.00;97953.50;4983738;28;20586;-68
2022/06/13 05:33:57;;;;;;;6.78;1.65;;;16.40;99.90;;;15.70;100.00;97956.06;4990151;28;20046;-69
2022/06/13 05:36:26;;;;;;;16.83;1.85;;;16.50;99.90;;;15.74;100.00;97962.00;4990073;28;20113;-68
2022/06/13 05:39:04;;;;;;;9.13;1.70;;;16.60;99.90;;;15.84;100.00;97961.34;4986677;28;20133;-68
2022/06/13 05:41:30;;;;;;;10.30;1.92;;;16.70;99.90;;;15.89;100.00;97968.94;4986542;28;20058;-68
2022/06/13 05:43:57;;;;;;;6.88;1.75;;;16.80;99.90;;;16.01;100.00;97970.00;4988861;28;20104;-68
2022/06/13 05:46:30;;;;;;;9.20;1.92;;;16.80;99.90;;;16.10;100.00;97970.31;4988364;28;20054;-67
2022/06/13 05:48:59;;;;;;;14.57;3.47;;;16.80;99.90;;;16.02;100.00;97969.91;4989854;28;20080;-68
2022/06/13 05:51:26;;;;;;;6.40;1.75;;;16.90;99.90;;;16.22;100.00;97967.91;4986792;28;20050;-68
2022/06/13 05:53:57;;;;;;;9.18;1.70;;;17.00;99.90;;;16.56;100.00;97976.34;4989329;28;20177;-69
2022/06/13 05:56:25;;;;;;;6.25;1.45;;;17.30;99.90;;;16.59;100.00;97971.78;4986306;28;20472;-68
2022/06/13 05:58:53;;;;;;;5.97;1.90;;;17.30;99.90;;;16.44;100.00;97978.78;4987241;28;20472;-69
2022/06/13 06:01:20;;;;;;;6.80;1.70;;;17.30;99.90;;;16.69;100.00;97972.06;4990561;28;20049;-68
2022/06/13 06:03:48;;;;;;;9.68;1.60;;;17.50;99.90;;;16.80;100.00;97976.69;4989966;28;20061;-68
2022/06/13 06:06:28;;;;;;;5.40;1.27;;;17.60;99.90;;;16.55;100.00;97983.38;4986016;28;20082;-68
2022/06/13 06:08:55;;;;;;;7.22;1.38;;;17.60;99.90;;;16.37;100.00;97981.88;4986015;28;20061;-69
2022/06/13 06:11:24;;;;;;;6.30;1.65;;;17.60;99.90;;;16.19;100.00;97975.94;4989472;28;20136;-68
2022/06/13 06:13:51;;;;;;;6.35;1.55;;;17.30;99.90;;;16.38;100.00;97978.34;4987857;28;20578;-67
2022/06/13 06:16:22;;;;;;;6.93;2.25;;;17.20;99.90;;;16.23;100.00;97978.28;4986060;28;20082;-68
2022/06/13 06:18:50;;;;;;;6.93;1.70;;;17.10;99.90;;;16.37;100.00;97981.88;4987132;28;20329;-68
2022/06/13 06:21:17;;;;;;;4.90;1.35;;;17.10;99.90;;;16.44;100.00;97991.03;4987332;28;20465;-66
2022/06/13 06:23:44;;;;;;;8.25;2.05;;;17.10;99.90;;;16.31;100.00;97994.41;4989199;28;20057;-66
2022/06/13 06:26:21;;;;;;;5.28;1.50;;;17.10;99.90;;;16.29;100.00;97996.28;4989447;28;20447;-66
2022/06/13 06:28:50;;;;;;;7.85;1.80;;;17.10;99.90;;;16.29;100.00;97995.44;4990072;28;20103;-67
2022/06/13 06:31:18;;;;;;;6.47;1.85;;;17.20;99.90;;;16.14;100.00;98002.41;4983845;28;20097;-68
2022/06/13 06:33:46;;;;;;;9.75;1.92;;;17.20;99.90;;;16.26;100.00;98000.84;4995105;28;20038;-66
2022/06/13 06:36:14;;;;;;;6.57;1.70;;;17.10;99.90;;;16.67;100.00;97998.38;4984858;28;20082;-66
2022/06/13 06:38:42;;;;;;;8.48;2.35;;;17.30;99.90;;;16.58;100.00;98001.56;4991357;28;20068;-66
2022/06/13 06:41:09;;;;;;;11.30;1.75;;;17.40;99.90;;;16.68;100.00;98007.09;4988123;28;20136;-67
2022/06/13 06:43:36;;;;;;;8.75;2.10;;;17.50;99.90;;;16.65;100.00;98007.25;4987649;28;20054;-66
2022/06/13 06:46:03;;;;;;;7.43;1.75;;;17.60;99.90;;;16.95;100.00;98009.00;4983474;28;21593;-68
2022/06/13 06:48:30;;;;;;;7.70;1.75;;;17.70;99.90;;;17.04;100.00;98013.69;4987706;28;20051;-68
2022/06/13 06:50:57;;;;;;;11.98;2.10;;;18.00;99.90;;;16.89;100.00;98010.19;4987941;28;20073;-68
2022/06/13 06:53:27;;;;;;;5.18;1.60;;;18.00;99.90;;;17.00;100.00;98007.75;4988715;28;20484;-66
2022/06/13 07:01:27;;;;;;;7.03;1.88;;;18.30;99.90;;;17.18;100.00;98008.41;4986744;28;20050;-66
2022/06/13 07:03:54;;;;;;;6.03;1.70;;;18.20;99.90;;;16.89;100.00;98005.78;4985470;28;20051;-67
2022/06/13 07:06:21;;;;;;;6.85;1.60;;;18.00;99.90;;;16.91;100.00;98009.16;4984059;28;20136;-67
2022/06/13 07:08:48;;;;;;;5.93;1.52;;;17.90;99.90;;;17.07;100.00;98009.06;4989473;28;20046;-68
2022/06/13 07:14:07;;;;;;;9.27;1.90;;;18.00;99.90;;;17.30;100.00;98014.66;4990672;28;20558;-67
2022/06/13 07:16:34;;;;;;;6.78;1.60;;;18.20;99.90;;;17.52;100.00;98007.09;4991709;28;20481;-66
2022/06/13 07:19:01;;;;;;;6.70;1.60;;;18.30;99.90;;;17.83;100.00;98012.19;4989326;28;20053;-67
2022/06/13 07:21:28;;;;;;;7.93;1.63;;;18.50;99.90;;;18.01;100.00;98012.78;4986353;28;20239;-68
2022/06/13 07:23:55;;;;;;;5.65;1.42;;;18.80;99.90;;;17.94;100.00;98015.78;4991808;28;20046;-67
2022/06/13 07:26:22;;;;;;;7.43;1.55;;;18.80;99.90;;;17.62;100.00;98017.84;4987021;28;20149;-67
2022/06/13 07:28:55;;;;;;;8.18;1.63;;;18.70;99.90;;;17.67;100.00;98030.69;4987298;28;20138;-67
2022/06/13 07:31:44;;;;;;;11.25;1.60;;;18.70;99.90;;;17.88;100.00;98024.09;4990051;28;20073;-67
2022/06/13 07:34:18;;;;;;;5.85;1.65;;;18.80;99.90;;;18.16;100.00;98022.28;4987987;28;20078;-66
2022/06/13 07:36:49;;;;;;;4.60;1.30;;;18.80;99.90;;;18.20;100.00;98021.13;4983651;28;20058;-68
2022/06/13 07:39:17;;;;;;;6.78;1.20;;;19.00;99.90;;;18.38;100.00;98019.91;4976259;28;20078;-67
2022/06/13 07:41:44;;;;;;;6.68;1.40;;;19.10;99.90;;;18.28;100.00;98025.88;4986001;28;20514;-66
2022/06/13 07:44:27;;;;;;;5.53;1.00;;;19.10;99.90;;;18.55;100.00;98024.00;4994108;28;20054;-67
2022/06/13 07:46:54;;;;;;;8.32;1.70;;;19.30;99.90;;;18.31;100.00;98020.41;4996405;28;20531;-67
2022/06/13 07:49:21;;;;;;;6.50;1.25;;;19.40;99.90;;;18.27;100.00;98018.91;4995612;28;20058;-67
2022/06/13 07:51:49;;;;;;;4.22;1.10;;;19.30;99.90;;;18.32;100.00;98024.72;4998005;28;20541;-67
2022/06/13 07:54:16;;;;;;;6.40;1.23;;;19.30;99.90;;;17.86;100.00;98030.34;4993030;28;20046;-67
2022/06/13 07:56:44;;;;;;;6.85;1.40;;;19.00;99.90;;;17.97;100.00;98028.75;4990513;28;20046;-68
2022/06/13 07:59:19;;;;;;;5.00;1.30;;;18.90;99.90;;;18.69;100.00;98023.06;4994754;28;20076;-66
2022/06/13 08:01:46;;;;;;;6.60;1.40;;;19.10;99.90;;;18.37;100.00;98017.38;4998110;28;20144;-66
2022/06/13 08:04:13;;;;;;;6.55;1.52;;;19.30;99.90;;;18.41;100.00;98028.53;4992005;28;20130;-66
2022/06/13 08:06:42;;;;;;;5.78;1.02;;;19.30;99.90;;;18.72;100.00;98012.31;4993285;28;20044;-66
2022/06/13 08:09:11;;;;;;;7.05;1.13;;;19.40;98.60;;;18.72;100.00;98024.63;4996394;28;20137;-66
2022/06/13 08:11:49;;;;;;;4.65;1.50;;;19.60;98.60;;;19.23;100.00;98014.94;4986536;28;20129;-67
2022/06/13 08:14:16;;;;;;;7.47;0.98;;;19.70;99.10;;;19.32;100.00;98021.34;4992787;28;20137;-67
2022/06/13 08:16:43;;;;;;;4.55;1.00;;;19.90;98.50;;;18.98;100.00;98009.72;4989814;28;20152;-67
2022/06/13 08:19:10;;;;;;;4.68;1.00;;;19.70;98.20;;;18.89;100.00;98020.88;4990058;28;20068;-66
2022/06/13 08:21:38;;;;;;;4.55;1.17;;;19.90;97.00;;;18.73;100.00;98018.44;4985839;28;20120;-67
2022/06/13 08:24:06;;;;;;;5.10;0.88;;;19.90;96.90;;;18.62;100.00;98023.59;4996222;28;20592;-66
2022/06/13 08:26:40;;;;;;;9.38;1.45;;;19.80;97.00;;;18.31;100.00;98029.13;4988464;28;20038;-67
2022/06/13 08:29:07;;;;;;;4.15;1.02;;;19.70;96.00;;;19.01;100.00;98014.75;4989650;28;20073;-67
2022/06/13 08:31:35;;;;;;;7.40;0.95;;;19.80;97.30;;;19.18;100.00;98013.56;4992020;28;20073;-67
2022/06/13 08:34:02;;;;;;;2.28;0.80;;;19.90;97.20;;;19.70;100.00;98012.50;4992884;28;20070;-67
2022/06/13 08:36:30;;;;;;;5.22;1.13;;;20.10;96.90;;;19.12;100.00;98024.53;4974104;28;20487;-66
2022/06/13 08:38:57;;;;;;;5.43;1.02;;;20.20;95.90;;;19.52;100.00;98019.06;5004736;28;20641;-66
2022/06/13 08:41:55;;;;;;;4.72;1.08;;;20.00;96.40;;;19.29;100.00;98012.81;4993386;28;20508;-67
2022/06/13 08:44:58;;;;;;;6.07;1.13;;;20.20;94.40;;;19.73;100.00;98009.66;4987388;28;20078;-67
2022/06/13 08:47:47;;;;;;;5.53;1.05;;;20.60;95.30;;;19.71;100.00;98008.09;4986228;28;20126;-66
2022/06/13 08:50:46;;;;;;;4.75;0.80;;;20.70;95.00;;;19.72;100.00;98018.50;4991352;28;20489;-67
2022/06/13 08:53:22;;;;;;;4.22;0.77;;;20.80;92.50;;;20.21;100.00;98014.03;4990236;28;21078;-69
2022/06/13 08:55:55;;;;;;;4.47;0.70;;;20.80;92.50;;;20.03;100.00;98021.53;4991813;28;20477;-66
2022/06/13 08:58:29;;;;;;;3.58;0.65;;;21.00;92.30;;;20.44;100.00;98021.03;4990167;28;20457;-68
2022/06/13 09:00:59;;;;;;;5.95;1.00;;;21.30;92.10;;;20.62;100.00;98028.56;4983352;28;20065;-68
2022/06/13 09:03:51;;;;;;;5.50;1.20;;;21.50;92.30;;;20.21;100.00;98028.06;4992618;28;20078;-69
2022/06/13 09:06:28;;;;;;;6.43;1.20;;;21.70;91.10;;;20.50;100.00;98022.38;5002487;28;20988;-69
2022/06/13 09:09:10;;;;;;;3.20;0.80;;;21.60;91.80;;;20.52;100.00;98025.72;4984939;28;20475;-68
2022/06/13 09:11:53;;;;;;;5.90;0.82;;;21.50;91.10;;;20.60;96.97;98019.91;4993737;28;20050;-67
2022/06/13 09:15:09;;;;;;;3.38;0.68;;;21.70;89.70;;;21.98;100.00;98032.75;4996560;28;20133;-68
2022/06/13 09:17:58;;;;;;;4.13;0.90;;;22.40;92.10;;;21.27;96.57;98037.56;4993070;28;20137;-67
2022/06/13 09:21:02;;;;;;;3.75;0.95;;;22.80;89.90;;;22.18;97.38;98025.81;4986186;28;20054;-67
2022/06/13 09:23:38;;;;;;;3.42;0.82;;;22.90;89.80;;;22.61;92.10;98032.84;4991056;28;20050;-67
2022/06/13 09:26:25;;;;;;;5.13;1.15;;;22.90;89.20;;;22.43;92.90;98042.34;4989234;28;20451;-68
2022/06/13 09:29:08;;;;;;;6.90;1.00;;;23.30;88.20;;;23.33;87.84;98031.97;4979763;28;20073;-68
2022/06/13 09:31:43;;;;;;;4.45;0.93;;;23.60;86.60;;;22.96;84.69;98034.28;4983037;28;20061;-68
2022/06/13 09:34:21;;;;;;;3.65;0.80;;;23.80;83.80;;;23.07;87.47;98036.88;4986452;28;20085;-68
2022/06/13 09:37:08;;;;;;;4.63;0.80;;;24.30;84.50;;;23.78;82.33;98030.69;4979588;28;20538;-68
2022/06/13 09:39:36;;;;;;;3.17;0.70;;;24.30;83.30;;;24.26;84.97;98044.97;4992716;28;20073;-68
2022/06/13 09:42:30;;;;;;;3.20;1.00;;;24.40;85.10;;;25.36;74.43;98041.78;4995431;28;20050;-68
2022/06/13 09:45:33;;;;;;;3.15;0.70;;;24.60;84.30;;;25.80;76.90;98032.16;4985950;28;20138;-67
2022/06/13 09:48:41;;;;;;;5.38;0.82;;;25.20;83.40;;;26.01;66.25;98039.88;4986068;28;20050;-68
2022/06/13 09:51:48;;;;;;;5.15;1.02;;;25.50;79.80;;;24.68;71.81;98039.34;4979874;28;20509;-68
2022/06/13 09:54:25;;;;;;;4.78;0.80;;;25.20;79.10;;;25.11;72.75;98040.59;4985544;28;20108;-67
2022/06/13 09:57:11;;;;;;;6.40;0.90;;;25.10;80.30;;;24.43;71.27;98036.31;4987785;28;20598;-67
2022/06/13 10:00:20;;;;;;;5.13;0.93;;;24.70;79.10;;;24.82;71.56;98042.38;4993560;28;20074;-68
2022/06/13 10:03:17;;;;;;;3.88;0.77;;;25.10;79.10;;;25.50;62.02;98049.28;4993923;28;20085;-68
2022/06/13 10:06:05;;;;;;;2.88;0.85;;;25.50;77.90;;;25.49;65.01;98047.59;4987102;28;20070;-69
2022/06/13 10:09:21;;;;;;;2.70;0.80;;;25.70;77.80;;;25.39;66.09;98047.66;4981955;28;20515;-68
2022/06/13 10:12:16;;;;;;;3.30;0.80;;;25.70;77.00;;;25.72;61.13;98048.03;4995753;28;20046;-68
2022/06/13 10:15:13;;;;;;;5.00;0.70;;;25.50;76.40;;;24.57;63.45;98056.28;5011606;28;20126;-67
2022/06/13 10:18:20;;;;;;;3.85;0.70;;;25.40;75.20;;;25.05;61.29;98047.34;4986699;28;20056;-67
2022/06/13 10:20:59;;;;;;;1.77;0.60;;;25.30;75.90;;;24.88;68.95;98050.75;4984348;28;20066;-68
2022/06/13 10:23:59;;;;;;;8.02;0.98;;;25.00;77.40;;;24.55;69.43;98056.41;4993283;28;20054;-69
2022/06/13 10:26:35;;;;;;;3.47;0.90;;;24.70;77.40;;;24.66;69.05;98046.63;4991038;28;20145;-67
2022/06/13 10:29:59;;;;;;;4.22;0.93;;;24.90;76.90;;;26.70;61.99;98035.63;4981118;28;20050;-68
2022/06/13 10:33:06;;;;;;;5.00;0.90;;;25.50;76.60;;;25.65;59.64;98055.75;4989838;28;20172;-67
2022/06/13 10:35:52;;;;;;;6.43;1.10;;;26.30;77.40;;;25.74;59.29;98050.53;4988881;28;20105;-68
2022/06/13 10:38:44;;;;;;;2.70;0.77;;;25.50;74.50;;;23.22;71.83;98049.75;4993610;28;20125;-68
2022/06/13 10:41:11;;;;;;;4.20;0.77;;;24.70;75.40;;;23.35;76.42;98059.13;4983689;28;20140;-68
2022/06/13 10:43:42;;;;;;;10.60;1.00;;;24.60;76.90;;;23.21;74.67;98042.78;4987774;28;20084;-67
2022/06/13 10:46:13;;;;;;;4.07;0.85;;;24.20;76.10;;;22.78;77.59;98049.91;4990296;28;20042;-67
2022/06/13 10:49:03;;;;;;;3.60;1.23;;;23.60;76.90;;;22.97;82.50;98042.09;4988466;28;20042;-68
2022/06/13 10:51:30;;;;;;;2.10;0.65;;;23.80;78.70;;;25.29;74.26;98049.50;4988697;28;20077;-67
2022/06/13 10:54:05;;;;;;;6.40;1.10;;;24.60;78.90;;;24.18;68.59;98041.19;4992589;28;20692;-68
2022/06/13 10:56:42;;;;;;;3.92;0.90;;;24.40;75.80;;;23.29;76.68;98049.09;4993452;28;20054;-68
2022/06/13 10:59:28;;;;;;;3.67;0.77;;;24.40;76.80;;;22.33;76.64;98056.31;4983830;28;20077;-68
2022/06/13 11:02:04;;;;;;;5.00;1.25;;;23.70;76.00;;;22.88;78.79;98042.06;4985478;28;20137;-71
2022/06/13 11:04:36;;;;;;;3.55;0.70;;;23.60;77.20;;;23.76;76.85;98041.41;4990910;28;20122;-69
2022/06/13 11:07:13;;;;;;;3.50;0.90;;;23.80;77.80;;;25.27;65.96;98035.53;4994186;28;20480;-67
2022/06/13 11:09:49;;;;;;;3.38;0.88;;;24.60;76.60;;;25.26;65.13;98039.19;4991972;28;20043;-67
2022/06/13 11:12:25;;;;;;;3.20;0.63;;;25.20;75.20;;;26.62;62.27;98038.28;4989797;28;20066;-69